createdAt,value
2023-02-05T00:00:21.625Z,92.37
2023-02-05T00:01:25.258Z,92.17
2023-02-05T00:02:27.979Z,92.52
2023-02-05T00:03:30.497Z,92.64
2023-02-05T00:04:36.338Z,92.47
2023-02-05T00:05:38.972Z,92.52
2023-02-05T00:06:41.340Z,93.00
2023-02-05T00:07:43.278Z,93.00
2023-02-05T00:08:45.727Z,92.70
2023-02-05T00:09:48.884Z,92.81
2023-02-05T00:10:52.737Z,92.71
2023-02-05T00:11:55.804Z,92.63
2023-02-05T00:12:58.054Z,92.58
2023-02-05T00:14:00.287Z,92.79
2023-02-05T00:15:02.380Z,92.75
2023-02-05T00:16:14.340Z,93.09
2023-02-05T00:17:16.555Z,92.81
2023-02-05T00:18:19.625Z,92.95
2023-02-05T00:19:21.700Z,92.79
2023-02-05T00:20:23.959Z,92.79
2023-02-05T00:21:26.674Z,92.79
2023-02-05T00:22:29.176Z,92.66
2023-02-05T00:23:32.577Z,92.76
2023-02-05T00:24:34.787Z,92.94
2023-02-05T00:25:37.049Z,92.95
2023-02-05T00:26:40.823Z,92.63
2023-02-05T00:27:42.908Z,92.68
2023-02-05T00:28:45.340Z,92.67
2023-02-05T00:29:47.358Z,92.67
2023-02-05T00:30:50.191Z,92.45
2023-02-05T00:31:52.454Z,92.49
2023-02-05T00:32:54.968Z,92.68
2023-02-05T00:33:59.546Z,92.51
2023-02-05T00:35:01.669Z,92.50
2023-02-05T00:36:05.257Z,92.81
2023-02-05T00:37:07.521Z,92.63
2023-02-05T00:38:09.521Z,92.73
2023-02-05T00:39:13.451Z,92.72
2023-02-05T00:40:16.224Z,92.64
2023-02-05T00:41:18.742Z,92.76
2023-02-05T00:42:20.961Z,92.68
2023-02-05T00:43:23.308Z,92.68
2023-02-05T00:44:26.283Z,92.75
2023-02-05T00:45:30.368Z,92.81
2023-02-05T00:46:32.962Z,92.90
2023-02-05T00:47:35.687Z,93.09
2023-02-05T00:48:38.353Z,93.31
2023-02-05T00:49:40.596Z,93.25
2023-02-05T00:50:42.924Z,93.25
2023-02-05T00:51:44.904Z,93.25
2023-02-05T00:52:47.119Z,93.70
2023-02-05T00:53:50.065Z,93.61
2023-02-05T00:54:53.022Z,93.71
2023-02-05T00:55:55.717Z,93.43
2023-02-05T00:56:58.575Z,93.43
2023-02-05T00:58:01.355Z,93.29
2023-02-05T00:59:03.930Z,93.31
2023-02-05T01:00:08.824Z,93.28
2023-02-05T01:01:12.970Z,93.70
2023-02-05T01:02:15.579Z,93.54
2023-02-05T01:03:19.634Z,93.79
2023-02-05T01:04:22.834Z,93.57
2023-02-05T01:05:25.271Z,93.72
2023-02-05T01:06:27.442Z,93.53
2023-02-05T01:07:29.916Z,93.76
2023-02-05T01:08:32.993Z,93.80
2023-02-05T01:09:35.713Z,94.17
2023-02-05T01:10:40.526Z,94.03
2023-02-05T01:11:43.242Z,94.08
2023-02-05T01:12:45.357Z,94.34
2023-02-05T01:13:47.551Z,94.24
2023-02-05T01:14:49.835Z,94.39
2023-02-05T01:15:52.884Z,94.42
2023-02-05T01:16:55.365Z,94.28
2023-02-05T01:17:59.141Z,94.54
2023-02-05T01:19:01.154Z,94.41
2023-02-05T01:20:05.892Z,94.37
2023-02-05T01:21:08.128Z,94.70
2023-02-05T01:22:10.980Z,95.21
2023-02-05T01:23:13.457Z,95.49
2023-02-05T01:24:16.405Z,95.37
2023-02-05T01:25:18.634Z,94.97
2023-02-05T01:26:21.805Z,94.49
2023-02-05T01:27:24.486Z,94.33
2023-02-05T01:28:27.913Z,94.54
2023-02-05T01:29:30.437Z,94.91
2023-02-05T01:30:33.114Z,94.35
2023-02-05T01:31:35.235Z,94.35
2023-02-05T01:32:38.137Z,94.71
2023-02-05T01:33:40.081Z,94.66
2023-02-05T01:34:42.139Z,94.56
2023-02-05T01:35:45.159Z,94.35
2023-02-05T01:36:49.662Z,94.56
2023-02-05T01:37:52.192Z,94.48
2023-02-05T01:38:54.313Z,95.08
2023-02-05T01:39:57.930Z,95.55
2023-02-05T01:41:00.271Z,95.46
2023-02-05T01:42:03.558Z,95.40
2023-02-05T01:43:14.283Z,95.26
2023-02-05T01:44:21.497Z,95.19
2023-02-05T01:45:32.043Z,94.85
2023-02-05T01:46:38.725Z,95.11
2023-02-05T01:47:41.124Z,95.09
2023-02-05T01:48:47.599Z,95.17
2023-02-05T01:49:50.212Z,95.31
2023-02-05T01:51:00.140Z,95.36
2023-02-05T01:52:06.772Z,95.33
2023-02-05T01:53:12.590Z,95.72
2023-02-05T01:54:18.218Z,95.92
2023-02-05T01:55:21.105Z,96.03
2023-02-05T01:56:30.216Z,96.15
2023-02-05T01:57:32.717Z,96.07
2023-02-05T01:59:51.690Z,96.05
2023-02-05T02:00:54.315Z,95.90
2023-02-05T02:02:00.188Z,96.02
2023-02-05T02:03:05.170Z,95.66
2023-02-05T02:04:10.565Z,95.51
2023-02-05T02:05:16.510Z,95.35
2023-02-05T02:06:18.903Z,95.60
2023-02-05T02:07:23.359Z,95.75
2023-02-05T02:08:26.277Z,95.78
2023-02-05T02:09:28.737Z,95.98
2023-02-05T02:10:33.357Z,95.92
2023-02-05T02:11:39.085Z,95.80
2023-02-05T02:12:44.525Z,95.88
2023-02-05T02:13:50.028Z,95.79
2023-02-05T02:14:56.183Z,96.19
2023-02-05T02:15:59.424Z,95.72
2023-02-05T02:17:03.775Z,95.79
2023-02-05T02:18:26.563Z,95.86
2023-02-05T02:19:38.233Z,96.10
2023-02-05T02:20:41.794Z,95.79
2023-02-05T02:21:53.397Z,96.10
2023-02-05T02:22:59.907Z,95.80
2023-02-05T02:24:20.716Z,95.73
2023-02-05T02:25:38.628Z,95.90
2023-02-05T02:27:16.679Z,95.90
2023-02-05T02:28:28.907Z,95.72
2023-02-05T02:29:38.530Z,96.26
2023-02-05T02:30:57.312Z,96.63
2023-02-05T02:32:03.369Z,96.08
2023-02-05T02:33:26.817Z,96.57
2023-02-05T02:34:32.637Z,96.09
2023-02-05T02:35:53.452Z,96.02
2023-02-05T02:37:02.430Z,95.82
2023-02-05T02:38:20.398Z,95.90
2023-02-05T02:39:39.680Z,96.59
2023-02-05T02:40:46.084Z,96.19
2023-02-05T02:41:53.395Z,96.27
2023-02-05T02:43:25.907Z,96.04
2023-02-05T02:44:44.273Z,95.96
2023-02-05T02:45:50.071Z,96.32
2023-02-05T02:46:55.100Z,95.98
2023-02-05T02:48:01.599Z,96.17
2023-02-05T02:49:06.855Z,95.72
2023-02-05T02:50:16.395Z,95.65
2023-02-05T02:51:20.884Z,95.30
2023-02-05T02:52:25.606Z,95.49
2023-02-05T02:53:31.740Z,95.56
2023-02-05T02:54:36.698Z,95.50
2023-02-05T02:55:43.821Z,95.13
2023-02-05T02:56:50.281Z,95.67
2023-02-05T02:57:56.267Z,95.38
2023-02-05T02:59:06.970Z,95.15
2023-02-05T03:00:13.858Z,95.42
2023-02-05T03:01:19.322Z,95.18
2023-02-05T03:02:22.485Z,95.00
2023-02-05T03:03:28.245Z,94.75
2023-02-05T03:04:37.213Z,94.47
2023-02-05T03:05:42.143Z,94.33
2023-02-05T03:06:47.658Z,94.17
2023-02-05T03:07:56.259Z,94.18
2023-02-05T03:09:08.158Z,94.28
2023-02-05T03:10:14.577Z,94.39
2023-02-05T03:11:17.428Z,95.02
2023-02-05T03:12:20.401Z,94.80
2023-02-05T03:13:22.631Z,94.85
2023-02-05T03:14:27.202Z,94.77
2023-02-05T03:15:32.079Z,94.74
2023-02-05T03:16:35.119Z,94.74
2023-02-05T03:17:39.798Z,94.59
2023-02-05T03:18:43.066Z,94.41
2023-02-05T03:19:52.408Z,94.42
2023-02-05T03:20:58.834Z,94.49
2023-02-05T03:22:03.952Z,94.21
2023-02-05T03:23:06.312Z,94.44
2023-02-05T03:24:10.084Z,93.86
2023-02-05T03:25:12.875Z,93.89
2023-02-05T03:26:27.717Z,93.56
2023-02-05T03:27:32.977Z,93.84
2023-02-05T03:28:35.600Z,93.91
2023-02-05T03:29:42.399Z,93.79
2023-02-05T03:32:32.910Z,93.92
2023-02-05T03:33:47.710Z,93.92
2023-02-05T03:35:10.525Z,93.77
2023-02-05T03:36:39.981Z,93.71
2023-02-05T03:38:08.306Z,93.66
2023-02-05T03:39:41.838Z,94.04
2023-02-05T03:41:07.919Z,94.02
2023-02-05T03:42:38.040Z,93.82
2023-02-05T03:43:49.804Z,94.08
2023-02-05T03:44:56.395Z,93.77
2023-02-05T03:46:19.574Z,94.02
2023-02-05T03:47:46.458Z,93.70
2023-02-05T03:48:55.040Z,93.55
2023-02-05T03:50:03.310Z,93.88
2023-02-05T03:51:32.037Z,93.88
2023-02-05T03:52:38.272Z,93.73
2023-02-05T03:54:01.918Z,93.40
2023-02-05T03:55:14.241Z,93.20
2023-02-05T03:56:24.264Z,93.38
2023-02-05T03:57:31.651Z,93.18
2023-02-05T03:59:49.642Z,93.80
2023-02-05T04:00:52.127Z,94.28
2023-02-05T04:01:55.660Z,93.84
2023-02-05T04:02:58.140Z,94.07
2023-02-05T04:04:02.505Z,94.10
2023-02-05T04:05:05.756Z,94.12
2023-02-05T04:06:08.941Z,93.71
2023-02-05T04:07:12.831Z,93.49
2023-02-05T04:08:15.757Z,93.82
2023-02-05T04:09:20.035Z,93.57
2023-02-05T04:10:22.462Z,93.61
2023-02-05T04:11:25.424Z,93.59
2023-02-05T04:12:28.376Z,93.83
2023-02-05T04:13:31.134Z,93.54
2023-02-05T04:14:34.767Z,93.27
2023-02-05T04:15:36.910Z,93.21
2023-02-05T04:16:43.413Z,93.43
2023-02-05T04:17:46.397Z,93.22
2023-02-05T04:18:49.082Z,93.05
2023-02-05T04:19:51.817Z,93.18
2023-02-05T04:20:54.720Z,93.76
2023-02-05T04:21:58.722Z,93.51
2023-02-05T04:23:01.146Z,93.20
2023-02-05T04:24:05.167Z,93.32
2023-02-05T04:25:08.503Z,93.53
2023-02-05T04:26:12.135Z,93.53
2023-02-05T04:27:16.076Z,93.56
2023-02-05T04:28:18.582Z,93.87
2023-02-05T04:29:21.398Z,93.65
2023-02-05T04:30:25.426Z,93.73
2023-02-05T04:31:28.241Z,94.09
2023-02-05T04:32:30.860Z,94.48
2023-02-05T04:33:34.067Z,94.37
2023-02-05T04:34:36.604Z,94.16
2023-02-05T04:35:40.600Z,94.29
2023-02-05T04:36:43.310Z,94.15
2023-02-05T04:37:45.399Z,93.98
2023-02-05T04:38:47.534Z,94.31
2023-02-05T04:39:50.636Z,94.05
2023-02-05T04:40:52.939Z,93.89
2023-02-05T04:41:55.259Z,93.74
2023-02-05T04:42:58.283Z,94.17
2023-02-05T04:44:00.973Z,94.50
2023-02-05T04:45:05.275Z,93.99
2023-02-05T04:46:09.579Z,94.04
2023-02-05T04:47:12.930Z,94.14
2023-02-05T04:48:15.016Z,93.89
2023-02-05T04:49:17.128Z,93.87
2023-02-05T04:50:19.350Z,93.89
2023-02-05T04:51:21.688Z,93.92
2023-02-05T04:52:23.896Z,93.75
2023-02-05T04:53:26.129Z,93.99
2023-02-05T04:54:28.277Z,93.93
2023-02-05T04:55:31.728Z,93.97
2023-02-05T04:56:34.228Z,94.04
2023-02-05T04:57:36.606Z,94.14
2023-02-05T04:58:39.351Z,94.15
2023-02-05T04:59:41.578Z,94.03
2023-02-05T05:00:43.801Z,93.98
2023-02-05T05:01:46.022Z,93.99
2023-02-05T05:02:48.419Z,93.97
2023-02-05T05:03:50.910Z,93.99
2023-02-05T05:04:53.039Z,93.86
2023-02-05T05:05:56.016Z,94.10
2023-02-05T05:06:58.787Z,94.47
2023-02-05T05:08:01.094Z,94.39
2023-02-05T05:09:03.523Z,94.35
2023-02-05T05:10:07.543Z,94.06
2023-02-05T05:11:12.857Z,94.26
2023-02-05T05:12:14.929Z,93.94
2023-02-05T05:13:17.070Z,93.87
2023-02-05T05:14:19.368Z,93.69
2023-02-05T05:15:21.829Z,93.63
2023-02-05T05:16:24.316Z,93.73
2023-02-05T05:17:26.578Z,93.42
2023-02-05T05:18:29.119Z,93.49
2023-02-05T05:19:31.355Z,93.45
2023-02-05T05:20:33.769Z,93.41
2023-02-05T05:21:36.205Z,93.04
2023-02-05T05:22:38.879Z,93.15
2023-02-05T05:23:41.128Z,93.06
2023-02-05T05:24:43.244Z,93.04
2023-02-05T05:25:47.684Z,93.24
2023-02-05T05:26:50.266Z,93.17
2023-02-05T05:27:52.442Z,93.13
2023-02-05T05:28:55.940Z,93.09
2023-02-05T05:29:58.275Z,93.12
2023-02-05T05:31:07.944Z,93.20
2023-02-05T05:32:10.038Z,93.26
2023-02-05T05:33:13.779Z,93.06
2023-02-05T05:34:15.919Z,92.92
2023-02-05T05:35:18.014Z,93.37
2023-02-05T05:36:20.209Z,93.18
2023-02-05T05:37:22.661Z,93.06
2023-02-05T05:38:24.699Z,93.25
2023-02-05T05:39:45.505Z,93.02
2023-02-05T05:41:06.150Z,92.84
2023-02-05T05:42:29.249Z,92.59
2023-02-05T05:44:53.479Z,93.18
2023-02-05T05:45:55.446Z,93.01
2023-02-05T05:46:57.915Z,92.63
2023-02-05T05:48:00.745Z,92.89
2023-02-05T05:49:03.551Z,92.82
2023-02-05T05:50:07.286Z,92.97
2023-02-05T05:51:10.443Z,92.57
2023-02-05T05:52:15.105Z,93.04
2023-02-05T05:53:17.716Z,93.14
2023-02-05T05:54:19.904Z,93.09
2023-02-05T05:55:22.038Z,93.03
2023-02-05T05:56:25.373Z,93.04
2023-02-05T05:57:28.548Z,93.30
2023-02-05T05:58:31.778Z,93.23
2023-02-05T05:59:34.192Z,93.26
2023-02-05T06:00:38.913Z,92.94
2023-02-05T06:01:41.309Z,92.89
2023-02-05T06:02:44.149Z,92.67
2023-02-05T06:03:46.549Z,92.91
2023-02-05T06:04:48.761Z,92.84
2023-02-05T06:05:50.827Z,92.73
2023-02-05T06:06:53.764Z,92.84
2023-02-05T06:07:58.833Z,93.08
2023-02-05T06:09:00.966Z,92.87
2023-02-05T06:10:03.701Z,93.25
2023-02-05T06:11:06.176Z,93.08
2023-02-05T06:12:10.027Z,92.74
2023-02-05T06:13:13.636Z,92.88
2023-02-05T06:14:16.178Z,93.30
2023-02-05T06:15:20.217Z,93.31
2023-02-05T06:16:22.443Z,92.81
2023-02-05T06:17:25.334Z,93.05
2023-02-05T06:18:27.514Z,93.10
2023-02-05T06:19:30.885Z,93.09
2023-02-05T06:20:33.152Z,93.20
2023-02-05T06:21:35.446Z,93.37
2023-02-05T06:22:38.075Z,93.75
2023-02-05T06:23:40.206Z,93.57
2023-02-05T06:24:42.755Z,93.55
2023-02-05T06:25:45.340Z,93.37
2023-02-05T06:26:48.971Z,93.98
2023-02-05T06:27:51.325Z,93.80
2023-02-05T06:28:55.257Z,94.19
2023-02-05T06:29:57.946Z,94.89
2023-02-05T06:31:00.423Z,94.90
2023-02-05T06:32:02.736Z,95.16
2023-02-05T06:33:05.382Z,95.32
2023-02-05T06:34:07.641Z,95.19
2023-02-05T06:35:09.933Z,95.35
2023-02-05T06:36:13.136Z,95.63
2023-02-05T06:37:15.446Z,95.46
2023-02-05T06:38:19.150Z,96.01
2023-02-05T06:39:24.853Z,96.81
2023-02-05T06:40:27.575Z,96.82
2023-02-05T06:41:29.924Z,95.88
2023-02-05T06:42:32.140Z,95.89
2023-02-05T06:43:34.409Z,96.08
2023-02-05T06:44:36.521Z,96.56
2023-02-05T06:45:38.651Z,96.23
2023-02-05T06:46:41.049Z,95.49
2023-02-05T06:47:44.874Z,95.71
2023-02-05T06:48:47.340Z,95.29
2023-02-05T06:49:50.719Z,94.97
2023-02-05T06:50:53.476Z,94.90
2023-02-05T06:51:56.516Z,95.13
2023-02-05T06:52:58.683Z,95.20
2023-02-05T06:54:01.023Z,95.08
2023-02-05T06:55:04.186Z,95.36
2023-02-05T06:56:06.879Z,94.91
2023-02-05T06:57:09.407Z,94.70
2023-02-05T06:58:12.640Z,94.46
2023-02-05T06:59:15.385Z,94.83
2023-02-05T07:00:19.723Z,95.27
2023-02-05T07:01:21.986Z,95.28
2023-02-05T07:02:25.096Z,95.08
2023-02-05T07:03:28.461Z,95.04
2023-02-05T07:04:31.932Z,95.01
2023-02-05T07:05:34.502Z,94.59
2023-02-05T07:06:37.885Z,94.49
2023-02-05T07:07:40.105Z,94.41
2023-02-05T07:08:42.430Z,94.90
2023-02-05T07:09:45.169Z,95.07
2023-02-05T07:10:47.559Z,95.09
2023-02-05T07:11:50.605Z,95.44
2023-02-05T07:12:52.797Z,95.08
2023-02-05T07:13:56.152Z,95.12
2023-02-05T07:14:58.527Z,95.52
2023-02-05T07:16:05.359Z,95.23
2023-02-05T07:17:08.307Z,95.56
2023-02-05T07:18:10.314Z,95.78
2023-02-05T07:19:12.873Z,96.16
2023-02-05T07:20:17.155Z,96.52
2023-02-05T07:21:19.693Z,96.25
2023-02-05T07:22:22.474Z,96.51
2023-02-05T07:23:24.910Z,96.89
2023-02-05T07:24:27.614Z,96.75
2023-02-05T07:25:31.948Z,96.88
2023-02-05T07:26:35.714Z,96.35
2023-02-05T07:27:38.388Z,96.39
2023-02-05T07:28:42.993Z,96.75
2023-02-05T07:29:45.239Z,97.06
2023-02-05T07:30:49.153Z,97.43
2023-02-05T07:31:52.343Z,97.55
2023-02-05T07:32:54.581Z,97.62
2023-02-05T07:33:58.377Z,97.37
2023-02-05T07:35:00.754Z,97.56
2023-02-05T07:36:08.567Z,97.30
2023-02-05T07:37:12.634Z,97.17
2023-02-05T07:38:15.635Z,97.45
2023-02-05T07:39:18.928Z,97.07
2023-02-05T07:40:21.744Z,96.79
2023-02-05T07:41:26.702Z,97.31
2023-02-05T07:42:31.608Z,97.23
2023-02-05T07:43:37.393Z,97.69
2023-02-05T07:44:39.757Z,97.61
2023-02-05T07:45:41.858Z,97.82
2023-02-05T07:46:44.119Z,97.61
2023-02-05T07:47:48.982Z,97.75
2023-02-05T07:48:51.199Z,97.29
2023-02-05T07:49:53.280Z,97.01
2023-02-05T07:50:57.010Z,97.15
2023-02-05T07:51:59.153Z,97.04
2023-02-05T07:53:02.249Z,97.50
2023-02-05T07:54:10.336Z,97.50
2023-02-05T07:55:12.351Z,97.83
2023-02-05T07:56:15.155Z,97.59
2023-02-05T07:57:17.167Z,97.37
2023-02-05T07:58:25.288Z,97.03
2023-02-05T07:59:27.719Z,97.43
2023-02-05T08:00:30.655Z,97.62
2023-02-05T08:01:34.536Z,97.58
2023-02-05T08:02:37.911Z,97.88
2023-02-05T08:03:40.377Z,97.92
2023-02-05T08:04:43.482Z,97.32
2023-02-05T08:05:46.566Z,97.31
2023-02-05T08:06:48.871Z,97.17
2023-02-05T08:07:51.236Z,97.25
2023-02-05T08:08:54.673Z,97.31
2023-02-05T08:09:58.033Z,97.14
2023-02-05T08:11:06.438Z,97.11
2023-02-05T08:12:09.360Z,97.38
2023-02-05T08:13:12.251Z,97.26
2023-02-05T08:14:14.854Z,97.61
2023-02-05T08:15:17.639Z,96.86
2023-02-05T08:16:21.269Z,97.10
2023-02-05T08:17:23.621Z,97.78
2023-02-05T08:18:25.809Z,98.17
2023-02-05T08:19:27.920Z,98.38
2023-02-05T08:20:30.259Z,98.11
2023-02-05T08:21:33.548Z,98.60
2023-02-05T08:22:38.127Z,98.46
2023-02-05T08:23:40.587Z,98.84
2023-02-05T08:24:42.877Z,98.99
2023-02-05T08:25:45.037Z,99.17
2023-02-05T08:26:47.452Z,99.16
2023-02-05T08:27:49.617Z,99.61
2023-02-05T08:28:51.705Z,99.72
2023-02-05T08:29:53.954Z,99.64
2023-02-05T08:30:57.050Z,98.94
2023-02-05T08:31:59.692Z,99.29
2023-02-05T08:33:02.294Z,98.98
2023-02-05T08:34:05.374Z,99.56
2023-02-05T08:35:07.962Z,99.21
2023-02-05T08:36:11.487Z,99.65
2023-02-05T08:37:13.629Z,99.44
2023-02-05T08:38:17.087Z,99.94
2023-02-05T08:39:20.443Z,100.00
2023-02-05T08:40:23.020Z,100.00
2023-02-05T08:41:25.239Z,100.00
2023-02-05T08:42:28.001Z,100.00
2023-02-05T08:43:30.353Z,100.00
2023-02-05T08:44:33.213Z,100.00
2023-02-05T08:45:36.972Z,100.00
2023-02-05T08:46:49.299Z,100.00
2023-02-05T08:47:45.023Z,100.00
2023-02-05T08:48:48.261Z,100.00
2023-02-05T08:49:50.972Z,100.00
2023-02-05T08:50:54.192Z,100.00
2023-02-05T08:51:57.674Z,100.00
2023-02-05T08:53:00.969Z,100.00
2023-02-05T08:54:05.277Z,100.00
2023-02-05T08:55:08.723Z,100.00
2023-02-05T08:56:13.899Z,100.00
2023-02-05T08:57:16.529Z,100.00
2023-02-05T08:58:18.655Z,100.00
2023-02-05T08:59:21.508Z,100.00
2023-02-05T09:00:24.846Z,100.00
2023-02-05T09:01:27.620Z,100.00
2023-02-05T09:02:32.138Z,100.00
2023-02-05T09:03:34.520Z,100.00
2023-02-05T09:04:38.497Z,100.00
2023-02-05T09:05:40.963Z,100.00
2023-02-05T09:06:44.345Z,100.00
2023-02-05T09:07:47.546Z,100.00
2023-02-05T09:08:49.949Z,100.00
2023-02-05T09:09:51.958Z,100.00
2023-02-05T09:10:54.379Z,100.00
2023-02-05T09:11:58.103Z,100.00
2023-02-05T09:13:00.884Z,100.00
2023-02-05T09:14:04.053Z,100.00
2023-02-05T09:15:08.164Z,100.00
2023-02-05T09:16:13.281Z,100.00
2023-02-05T09:17:16.772Z,100.00
2023-02-05T09:18:19.416Z,100.00
2023-02-05T09:19:21.542Z,100.00
2023-02-05T09:20:23.667Z,100.00
2023-02-05T09:21:27.123Z,100.00
2023-02-05T09:22:29.488Z,100.00
2023-02-05T09:23:32.506Z,100.00
2023-02-05T09:24:37.015Z,100.00
2023-02-05T09:25:41.214Z,100.00
2023-02-05T09:26:43.851Z,100.00
2023-02-05T09:27:46.238Z,100.00
2023-02-05T09:28:49.550Z,100.00
2023-02-05T09:29:51.750Z,100.00
2023-02-05T09:30:55.166Z,100.00
2023-02-05T09:32:00.351Z,100.00
2023-02-05T09:33:02.892Z,100.00
2023-02-05T09:34:05.874Z,100.00
2023-02-05T09:35:08.453Z,100.00
2023-02-05T09:36:20.494Z,100.00
2023-02-05T09:37:23.798Z,100.00
2023-02-05T09:38:26.040Z,100.00
2023-02-05T09:40:17.348Z,100.00
2023-02-05T09:40:44.496Z,100.00
2023-02-05T09:41:53.950Z,100.00
2023-02-05T09:43:31.518Z,100.00
2023-02-05T09:44:40.764Z,100.00
2023-02-05T09:45:59.318Z,100.00
2023-02-05T09:47:08.986Z,100.00
2023-02-05T09:48:38.488Z,100.00
2023-02-05T09:50:06.868Z,100.00
2023-02-05T09:51:12.301Z,100.00
2023-02-05T09:52:21.229Z,100.00
2023-02-05T09:53:25.913Z,100.00
2023-02-05T09:54:31.724Z,100.00
2023-02-05T09:55:38.177Z,100.00
2023-02-05T09:56:43.320Z,100.00
2023-02-05T09:57:46.253Z,100.00
2023-02-05T09:58:51.345Z,100.00
2023-02-05T09:59:53.815Z,100.00
2023-02-05T10:01:02.864Z,100.00
2023-02-05T10:03:33.433Z,100.00
2023-02-05T10:04:36.313Z,100.00
2023-02-05T10:05:48.644Z,100.00
2023-02-05T10:07:09.298Z,100.00
2023-02-05T10:08:21.340Z,100.00
2023-02-05T10:09:48.960Z,100.00
2023-02-05T10:10:54.200Z,100.00
2023-02-05T10:12:12.350Z,100.00
2023-02-05T10:13:27.357Z,100.00
2023-02-05T10:14:49.880Z,100.00
2023-02-05T10:16:04.982Z,100.00
2023-02-05T10:17:29.902Z,100.00
2023-02-05T10:18:51.032Z,99.99
2023-02-05T10:22:01.054Z,99.79
2023-02-05T10:23:13.099Z,99.27
2023-02-05T10:24:39.606Z,98.04
2023-02-05T10:25:53.344Z,96.08
2023-02-05T10:27:00.635Z,96.46
2023-02-05T10:28:13.218Z,96.96
2023-02-05T10:29:25.246Z,96.12
2023-02-05T10:30:34.535Z,96.24
2023-02-05T10:31:43.305Z,96.18
2023-02-05T10:33:01.798Z,97.47
2023-02-05T10:34:16.653Z,97.96
2023-02-05T10:35:26.234Z,98.30
2023-02-05T10:36:29.746Z,97.92
2023-02-05T10:37:44.438Z,97.80
2023-02-05T10:38:47.592Z,97.73
2023-02-05T10:39:50.052Z,97.87
2023-02-05T10:41:00.448Z,97.51
2023-02-05T10:42:06.731Z,97.82
2023-02-05T10:43:25.947Z,97.16
2023-02-05T10:44:47.944Z,95.96
2023-02-05T10:45:52.588Z,95.10
2023-02-05T10:46:59.301Z,93.13
2023-02-05T10:48:21.523Z,93.71
2023-02-05T10:49:30.419Z,94.37
2023-02-05T10:50:55.003Z,94.20
2023-02-05T10:51:58.027Z,95.14
2023-02-05T10:53:00.242Z,94.10
2023-02-05T10:54:02.806Z,94.63
2023-02-05T10:55:08.763Z,94.21
2023-02-05T10:56:14.961Z,94.44
2023-02-05T10:57:20.307Z,94.38
2023-02-05T10:58:45.755Z,93.61
2023-02-05T10:59:56.050Z,94.09
2023-02-05T11:01:00.858Z,93.17
2023-02-05T11:02:06.693Z,93.06
2023-02-05T11:03:12.745Z,93.18
2023-02-05T11:04:18.182Z,93.88
2023-02-05T11:05:40.088Z,94.81
2023-02-05T11:06:48.734Z,94.95
2023-02-05T11:07:54.203Z,93.72
2023-02-05T11:08:58.020Z,94.38
2023-02-05T11:10:25.557Z,95.12
2023-02-05T11:11:31.312Z,94.87
2023-02-05T11:12:33.558Z,95.08
2023-02-05T11:13:40.318Z,94.96
2023-02-05T11:14:48.890Z,94.92
2023-02-05T11:16:09.162Z,95.22
2023-02-05T11:17:21.402Z,95.66
2023-02-05T11:18:36.360Z,95.63
2023-02-05T11:19:39.529Z,95.16
2023-02-05T11:20:47.399Z,95.92
2023-02-05T11:21:56.021Z,95.93
2023-02-05T11:23:11.194Z,95.72
2023-02-05T11:24:25.501Z,95.85
2023-02-05T11:25:30.458Z,96.12
2023-02-05T11:26:33.407Z,96.16
2023-02-05T11:27:36.246Z,96.29
2023-02-05T11:28:40.691Z,96.27
2023-02-05T11:29:43.827Z,96.57
2023-02-05T11:30:53.693Z,97.22
2023-02-05T11:31:51.868Z,97.29
2023-02-05T11:32:54.440Z,97.18
2023-02-05T11:34:11.627Z,96.87
2023-02-05T11:35:31.845Z,97.28
2023-02-05T11:36:36.830Z,97.34
2023-02-05T11:37:41.204Z,97.34
2023-02-05T11:38:58.610Z,97.05
2023-02-05T11:40:01.962Z,97.13
2023-02-05T11:41:07.941Z,97.82
2023-02-05T11:42:23.392Z,97.82
2023-02-05T11:44:51.664Z,97.06
2023-02-05T11:45:57.785Z,96.97
2023-02-05T11:47:04.104Z,97.23
2023-02-05T11:48:13.403Z,96.74
2023-02-05T11:50:29.270Z,97.53
2023-02-05T11:51:38.238Z,96.76
2023-02-05T11:52:40.511Z,97.31
2023-02-05T11:53:46.714Z,97.19
2023-02-05T11:54:50.630Z,97.31
2023-02-05T11:56:02.913Z,97.32
2023-02-05T11:57:21.813Z,97.11
2023-02-05T11:58:37.281Z,97.45
2023-02-05T11:59:40.001Z,97.66
2023-02-05T12:00:52.965Z,97.51
2023-02-05T12:01:57.113Z,97.59
2023-02-05T12:03:06.689Z,97.67
2023-02-05T12:04:12.514Z,96.88
2023-02-05T12:05:21.019Z,97.33
2023-02-05T12:06:29.401Z,96.64
2023-02-05T12:07:36.636Z,97.72
2023-02-05T12:08:48.796Z,96.46
2023-02-05T12:09:54.348Z,96.49
2023-02-05T12:11:24.565Z,96.37
2023-02-05T12:12:36.519Z,96.00
2023-02-05T12:14:07.018Z,96.05
2023-02-05T12:15:23.211Z,95.83
2023-02-05T12:16:33.376Z,96.33
2023-02-05T12:17:42.934Z,96.27
2023-02-05T12:18:57.423Z,96.42
2023-02-05T12:20:24.896Z,96.32
2023-02-05T12:21:46.604Z,95.83
2023-02-05T12:23:04.798Z,94.83
2023-02-05T12:24:18.174Z,94.07
2023-02-05T12:25:28.072Z,93.92
2023-02-05T12:26:38.305Z,93.59
2023-02-05T12:27:47.244Z,93.38
2023-02-05T12:29:00.309Z,92.89
2023-02-05T12:30:31.955Z,92.58
2023-02-05T12:31:47.748Z,92.85
2023-02-05T12:33:10.696Z,92.25
2023-02-05T12:34:16.625Z,91.51
2023-02-05T12:35:32.884Z,91.06
2023-02-05T12:37:11.333Z,91.99
2023-02-05T12:38:32.409Z,91.41
2023-02-05T12:39:41.301Z,91.03
2023-02-05T12:41:05.762Z,89.87
2023-02-05T12:42:17.341Z,89.16
2023-02-05T12:43:34.592Z,89.66
2023-02-05T12:44:40.877Z,90.20
2023-02-05T12:46:05.387Z,89.91
2023-02-05T12:47:30.761Z,89.55
2023-02-05T12:48:58.813Z,90.24
2023-02-05T12:50:16.943Z,89.94
2023-02-05T12:51:29.333Z,89.83
2023-02-05T12:52:40.214Z,88.96
2023-02-05T12:53:49.041Z,89.96
2023-02-05T12:54:56.350Z,90.05
2023-02-05T12:56:15.465Z,89.03
2023-02-05T12:57:24.323Z,89.26
2023-02-05T12:58:30.213Z,89.77
2023-02-05T12:59:49.011Z,89.24
2023-02-05T13:00:57.959Z,90.00
2023-02-05T13:02:16.183Z,89.79
2023-02-05T13:03:25.146Z,90.01
2023-02-05T13:04:34.399Z,89.96
2023-02-05T13:05:40.155Z,89.82
2023-02-05T13:06:47.303Z,90.40
2023-02-05T13:07:54.092Z,90.01
2023-02-05T13:09:02.588Z,90.46
2023-02-05T13:10:27.781Z,90.62
2023-02-05T13:11:34.649Z,90.96
2023-02-05T13:12:40.448Z,91.03
2023-02-05T13:13:48.909Z,90.81
2023-02-05T13:15:06.940Z,91.26
2023-02-05T13:16:13.683Z,91.44
2023-02-05T13:17:20.019Z,91.26
2023-02-05T13:18:25.923Z,91.81
2023-02-05T13:19:36.823Z,91.96
2023-02-05T13:21:02.934Z,91.23
2023-02-05T13:22:31.144Z,91.15
2023-02-05T13:23:53.979Z,91.80
2023-02-05T13:25:21.079Z,91.54
2023-02-05T13:26:49.112Z,91.82
2023-02-05T13:28:14.404Z,91.55
2023-02-05T13:29:20.482Z,91.62
2023-02-05T13:30:26.603Z,92.23
2023-02-05T13:31:39.167Z,92.41
2023-02-05T13:32:45.327Z,93.09
2023-02-05T13:33:48.966Z,92.86
2023-02-05T13:34:53.631Z,92.93
2023-02-05T13:36:11.992Z,92.97
2023-02-05T13:37:27.196Z,92.54
2023-02-05T13:39:00.982Z,93.13
2023-02-05T13:40:24.134Z,92.91
2023-02-05T13:41:50.401Z,92.82
2023-02-05T13:43:15.228Z,94.10
2023-02-05T13:44:48.919Z,94.80
2023-02-05T13:46:01.198Z,94.53
2023-02-05T13:47:10.464Z,94.99
2023-02-05T13:48:38.879Z,94.86
2023-02-05T13:50:08.133Z,95.13
2023-02-05T13:51:23.356Z,94.54
2023-02-05T13:53:05.675Z,95.71
2023-02-05T13:54:33.132Z,95.56
2023-02-05T13:56:04.954Z,95.52
2023-02-05T13:57:36.650Z,95.67
2023-02-05T13:58:59.018Z,95.49
2023-02-05T14:00:04.771Z,95.60
2023-02-05T14:01:25.825Z,96.16
2023-02-05T14:02:51.546Z,95.87
2023-02-05T14:03:59.033Z,96.02
2023-02-05T14:05:04.757Z,95.84
2023-02-05T14:06:21.421Z,96.15
2023-02-05T14:07:31.781Z,96.38
2023-02-05T14:08:37.819Z,96.63
2023-02-05T14:09:48.642Z,96.24
2023-02-05T14:11:01.100Z,96.33
2023-02-05T14:12:12.772Z,95.58
2023-02-05T14:13:22.335Z,95.95
2023-02-05T14:14:32.605Z,95.97
2023-02-05T14:15:38.093Z,96.09
2023-02-05T14:16:42.789Z,96.59
2023-02-05T14:17:48.841Z,96.74
2023-02-05T14:19:03.878Z,96.76
2023-02-05T14:20:32.578Z,96.59
2023-02-05T14:21:48.537Z,96.87
2023-02-05T14:22:53.721Z,97.30
2023-02-05T14:24:01.206Z,97.51
2023-02-05T14:25:08.969Z,97.54
2023-02-05T14:26:12.146Z,97.35
2023-02-05T14:27:40.178Z,97.39
2023-02-05T14:28:47.894Z,97.36
2023-02-05T14:29:51.773Z,97.16
2023-02-05T14:30:59.006Z,97.12
2023-02-05T14:32:01.832Z,97.55